createdAt,value
2017-12-21T00:01:18.125Z,101371.66
2017-12-21T00:03:44.388Z,101356.80
2017-12-21T00:06:11.422Z,101358.73
2017-12-21T00:08:38.393Z,101347.21
2017-12-21T00:11:04.717Z,101342.28
2017-12-21T00:13:31.005Z,101342.16
2017-12-21T00:15:57.292Z,101337.85
2017-12-21T00:18:23.561Z,101339.28
2017-12-21T00:20:49.805Z,101348.51
2017-12-21T00:23:16.165Z,101359.25
2017-12-21T00:25:43.261Z,101367.84
2017-12-21T00:28:09.543Z,101378.50
2017-12-21T00:30:36.599Z,101379.02
2017-12-21T00:33:03.607Z,101375.47
2017-12-21T00:35:29.906Z,101376.94
2017-12-21T00:37:56.146Z,101383.17
2017-12-21T00:40:22.418Z,101375.66
2017-12-21T00:42:48.664Z,101379.95
2017-12-21T00:45:15.710Z,101376.78
2017-12-21T00:47:42.711Z,101378.28
2017-12-21T00:50:08.988Z,101381.74
2017-12-21T00:52:35.992Z,101384.94
2017-12-21T00:55:02.302Z,101380.59
2017-12-21T00:57:28.564Z,101378.00
2017-12-21T00:59:54.874Z,101382.08
2017-12-21T01:02:21.127Z,101381.55
2017-12-21T01:04:48.169Z,101376.09
2017-12-21T01:07:14.412Z,101367.20
2017-12-21T01:09:40.736Z,101364.48
2017-12-21T01:12:07.745Z,101359.78
2017-12-21T01:14:34.039Z,101357.17
2017-12-21T01:17:01.035Z,101361.58
2017-12-21T01:19:27.287Z,101367.30
2017-12-21T01:21:53.555Z,101370.47
2017-12-21T01:24:19.809Z,101370.84
2017-12-21T01:26:46.063Z,101365.92
2017-12-21T01:29:12.318Z,101360.86
2017-12-21T01:31:39.299Z,101356.70
2017-12-21T01:34:05.576Z,101358.58
2017-12-21T01:36:31.889Z,101350.26
2017-12-21T01:38:58.124Z,101336.59
2017-12-21T01:41:24.343Z,101332.59
2017-12-21T01:43:50.660Z,101335.65
2017-12-21T01:46:16.921Z,101345.72
2017-12-21T01:48:43.261Z,101339.27
2017-12-21T01:51:09.651Z,101330.69
2017-12-21T01:53:35.923Z,101337.01
2017-12-21T01:56:02.217Z,101326.10
2017-12-21T01:58:28.469Z,101329.33
2017-12-21T02:00:54.732Z,101329.05
2017-12-21T02:03:21.772Z,101316.45
2017-12-21T02:05:48.066Z,101319.22
2017-12-21T02:08:14.317Z,101325.13
2017-12-21T02:10:40.620Z,101322.55
2017-12-21T02:13:06.891Z,101325.42
2017-12-21T02:15:33.179Z,101330.61
2017-12-21T02:17:59.510Z,101322.19
2017-12-21T02:20:25.867Z,101314.38
2017-12-21T02:22:52.175Z,101300.48
2017-12-21T02:25:18.543Z,101304.50
2017-12-21T02:27:44.839Z,101288.03
2017-12-21T02:30:11.069Z,101288.02
2017-12-21T02:32:37.333Z,101288.66
2017-12-21T02:35:03.620Z,101287.98
2017-12-21T02:37:31.699Z,101285.43
2017-12-21T02:39:58.002Z,101287.23
2017-12-21T02:42:24.242Z,101293.03
2017-12-21T02:44:50.476Z,101273.76
2017-12-21T02:47:16.770Z,101260.32
2017-12-21T02:49:43.774Z,101261.13
2017-12-21T02:52:10.068Z,101266.73
2017-12-21T02:54:36.333Z,101271.20
2017-12-21T02:57:02.644Z,101277.20
2017-12-21T02:59:28.872Z,101269.11
2017-12-21T03:01:55.160Z,101265.20
2017-12-21T03:04:21.436Z,101268.39
2017-12-21T03:06:47.700Z,101263.94
2017-12-21T03:09:13.948Z,101267.91
2017-12-21T03:11:40.262Z,101260.45
2017-12-21T03:14:06.590Z,101267.66
2017-12-21T03:16:32.900Z,101272.48
2017-12-21T03:18:59.210Z,101270.31
2017-12-21T03:21:25.536Z,101272.52
2017-12-21T03:23:51.775Z,101282.00
2017-12-21T03:26:18.047Z,101279.54
2017-12-21T03:28:44.304Z,101288.59
2017-12-21T03:31:11.322Z,101284.90
2017-12-21T03:33:37.631Z,101267.48
2017-12-21T03:36:03.873Z,101271.11
2017-12-21T03:38:30.245Z,101266.69
2017-12-21T03:40:56.488Z,101271.41
2017-12-21T03:43:22.763Z,101278.65
2017-12-21T03:45:49.057Z,101271.81
2017-12-21T03:48:15.339Z,101261.68
2017-12-21T03:50:49.180Z,101257.75
2017-12-21T03:53:16.182Z,101254.86
2017-12-21T03:55:42.499Z,101247.83
2017-12-21T03:58:08.750Z,101237.13
2017-12-21T04:00:35.081Z,101239.66
2017-12-21T04:03:01.367Z,101237.11
2017-12-21T04:05:27.667Z,101233.23
2017-12-21T04:07:54.706Z,101221.46
2017-12-21T04:10:21.758Z,101229.70
2017-12-21T04:12:48.761Z,101232.34
2017-12-21T04:15:15.051Z,101226.86
2017-12-21T04:17:41.322Z,101223.42
2017-12-21T04:20:07.603Z,101225.98
2017-12-21T04:22:34.619Z,101223.45
2017-12-21T04:25:01.690Z,101215.84
2017-12-21T04:27:28.699Z,101210.55
2017-12-21T04:29:54.944Z,101212.91
2017-12-21T04:32:21.236Z,101211.61
2017-12-21T04:34:47.469Z,101208.59
2017-12-21T04:37:13.756Z,101197.20
2017-12-21T04:39:40.744Z,101202.73
2017-12-21T04:42:07.126Z,101210.80
2017-12-21T04:44:33.586Z,101213.47
2017-12-21T04:47:00.027Z,101210.19
2017-12-21T04:49:26.552Z,101214.88
2017-12-21T04:51:53.851Z,101222.02
2017-12-21T04:54:20.221Z,101225.53
2017-12-21T04:56:47.218Z,101221.48
2017-12-21T04:59:13.523Z,101229.47
2017-12-21T05:01:39.734Z,101225.39
2017-12-21T05:04:06.739Z,101219.75
2017-12-21T05:06:33.007Z,101215.75
2017-12-21T05:09:00.008Z,101213.87
2017-12-21T05:11:26.317Z,101220.41
2017-12-21T05:13:52.606Z,101215.25
2017-12-21T05:16:18.905Z,101213.05
2017-12-21T05:18:45.182Z,101214.64
2017-12-21T05:21:11.460Z,101210.22
2017-12-21T05:23:37.746Z,101201.57
2017-12-21T05:26:04.793Z,101203.85
2017-12-21T05:28:31.861Z,101207.39
2017-12-21T05:30:58.094Z,101202.41
2017-12-21T05:33:24.478Z,101195.17
2017-12-21T05:35:50.736Z,101198.86
2017-12-21T05:38:17.773Z,101189.37
2017-12-21T05:40:51.706Z,101181.95
2017-12-21T05:43:17.992Z,101180.92
2017-12-21T05:45:44.292Z,101175.20
2017-12-21T05:48:10.568Z,101183.77
2017-12-21T05:50:37.601Z,101184.19
2017-12-21T05:53:03.844Z,101190.50
2017-12-21T05:55:30.952Z,101192.98
2017-12-21T05:57:57.224Z,101190.80
2017-12-21T06:00:24.212Z,101180.50
2017-12-21T06:02:50.478Z,101171.75
2017-12-21T06:05:16.721Z,101181.33
2017-12-21T06:07:43.714Z,101181.98
2017-12-21T06:10:10.012Z,101185.18
2017-12-21T06:12:37.051Z,101186.19
2017-12-21T06:15:03.332Z,101175.44
2017-12-21T06:17:29.602Z,101177.70
2017-12-21T06:19:55.909Z,101169.33
2017-12-21T06:22:22.177Z,101171.34
2017-12-21T06:24:49.157Z,101179.36
2017-12-21T06:27:15.447Z,101176.86
2017-12-21T06:29:41.685Z,101177.48
2017-12-21T06:32:08.699Z,101172.77
2017-12-21T06:34:35.010Z,101168.88
2017-12-21T06:37:01.340Z,101175.65
2017-12-21T06:39:27.581Z,101173.70
2017-12-21T06:41:53.883Z,101171.78
2017-12-21T06:44:20.147Z,101167.73
2017-12-21T06:46:46.437Z,101170.73
2017-12-21T06:49:12.674Z,101170.83
2017-12-21T06:51:39.011Z,101158.84
2017-12-21T06:54:05.326Z,101179.32
2017-12-21T06:56:31.689Z,101171.21
2017-12-21T06:58:58.044Z,101179.77
2017-12-21T07:01:24.336Z,101163.69
2017-12-21T07:03:50.630Z,101162.37
2017-12-21T07:06:17.658Z,101154.91
2017-12-21T07:08:44.006Z,101153.48
2017-12-21T07:11:11.027Z,101157.31
2017-12-21T07:13:37.312Z,101161.82
2017-12-21T07:16:03.657Z,101164.62
2017-12-21T07:18:29.944Z,101148.13
2017-12-21T07:20:57.021Z,101159.83
2017-12-21T07:23:23.296Z,101169.72
2017-12-21T07:25:49.599Z,101170.38
2017-12-21T07:28:15.867Z,101166.65
2017-12-21T07:30:42.196Z,101179.80
2017-12-21T07:33:08.432Z,101173.71
2017-12-21T07:35:34.735Z,101176.41
2017-12-21T07:38:01.047Z,101159.42
2017-12-21T07:40:27.363Z,101167.70
2017-12-21T07:42:53.630Z,101168.09
2017-12-21T07:45:19.926Z,101159.06
2017-12-21T07:47:46.193Z,101165.16
2017-12-21T07:50:12.504Z,101167.78
2017-12-21T07:52:38.826Z,101151.70
2017-12-21T07:55:05.107Z,101164.31
2017-12-21T07:57:31.399Z,101169.73
2017-12-21T07:59:57.685Z,101181.91
2017-12-21T08:02:24.705Z,101164.95
2017-12-21T08:04:50.964Z,101163.19
2017-12-21T08:07:18.006Z,101163.14
2017-12-21T08:09:45.049Z,101165.23
2017-12-21T08:12:12.171Z,101171.95
2017-12-21T08:14:38.487Z,101167.30
2017-12-21T08:17:04.808Z,101168.80
2017-12-21T08:19:31.147Z,101165.17
2017-12-21T08:21:57.455Z,101165.46
2017-12-21T08:24:23.722Z,101170.75
2017-12-21T08:26:50.056Z,101163.99
2017-12-21T08:29:16.305Z,101157.59
2017-12-21T08:31:42.583Z,101144.10
2017-12-21T08:34:08.846Z,101154.19
2017-12-21T08:36:35.147Z,101162.69
2017-12-21T08:39:01.417Z,101149.98
2017-12-21T08:41:27.689Z,101139.71
2017-12-21T08:43:53.973Z,101148.34
2017-12-21T08:46:20.219Z,101137.96
2017-12-21T08:48:47.258Z,101150.83
2017-12-21T08:51:13.503Z,101151.13
2017-12-21T08:53:40.515Z,101151.95
2017-12-21T08:56:06.782Z,101149.81
2017-12-21T08:58:33.788Z,101150.20
2017-12-21T09:01:00.136Z,101151.65
2017-12-21T09:03:26.390Z,101152.43
2017-12-21T09:05:53.412Z,101149.92
2017-12-21T09:08:19.668Z,101153.61
2017-12-21T09:10:46.650Z,101141.37
2017-12-21T09:13:12.981Z,101146.05
2017-12-21T09:15:39.250Z,101140.80
2017-12-21T09:18:05.472Z,101136.62
2017-12-21T09:20:31.768Z,101136.97
2017-12-21T09:22:58.004Z,101133.62
2017-12-21T09:25:24.326Z,101129.94
2017-12-21T09:27:50.633Z,101127.94
2017-12-21T09:30:16.901Z,101127.78
2017-12-21T09:32:43.196Z,101122.06
2017-12-21T09:35:09.442Z,101129.26
2017-12-21T09:37:35.717Z,101119.45
2017-12-21T09:40:01.959Z,101116.59
2017-12-21T09:42:28.237Z,101115.55
2017-12-21T09:44:54.485Z,101117.61
2017-12-21T09:47:20.802Z,101116.99
2017-12-21T09:49:47.083Z,101118.75
2017-12-21T09:52:14.911Z,101119.69
2017-12-21T09:54:41.201Z,101127.78
2017-12-21T09:57:07.477Z,101120.59
2017-12-21T09:59:33.779Z,101122.20
2017-12-21T10:02:00.067Z,101121.80
2017-12-21T10:04:26.369Z,101115.09
2017-12-21T10:06:52.651Z,101122.27
2017-12-21T10:09:18.972Z,101121.24
2017-12-21T10:11:46.026Z,101113.13
2017-12-21T10:14:12.368Z,101126.25
2017-12-21T10:16:38.639Z,101120.16
2017-12-21T10:19:04.952Z,101112.45
2017-12-21T10:21:31.224Z,101119.68
2017-12-21T10:23:57.507Z,101111.55
2017-12-21T10:26:23.778Z,101111.09
2017-12-21T10:28:50.024Z,101104.94
2017-12-21T10:31:17.060Z,101104.05
2017-12-21T10:33:44.090Z,101096.06
2017-12-21T10:36:10.365Z,101102.31
2017-12-21T10:38:36.663Z,101097.02
2017-12-21T10:41:03.675Z,101090.08
2017-12-21T10:43:30.025Z,101091.02
2017-12-21T10:45:56.335Z,101088.56
2017-12-21T10:48:22.667Z,101089.19
2017-12-21T10:50:48.929Z,101089.00
2017-12-21T10:53:15.226Z,101083.65
2017-12-21T10:55:41.473Z,101090.09
2017-12-21T10:58:07.739Z,101093.40
2017-12-21T11:00:34.810Z,101093.80
2017-12-21T11:03:01.065Z,101077.91
2017-12-21T11:05:27.361Z,101082.37
2017-12-21T11:07:54.369Z,101070.95
2017-12-21T11:10:20.686Z,101075.29
2017-12-21T11:12:46.992Z,101076.84
2017-12-21T11:15:13.269Z,101076.11
2017-12-21T11:17:42.765Z,101068.56
2017-12-21T11:20:09.081Z,101064.25
2017-12-21T11:22:35.380Z,101061.22
2017-12-21T11:25:01.639Z,101056.33
2017-12-21T11:27:27.889Z,101070.74
2017-12-21T11:29:54.181Z,101059.73
2017-12-21T11:32:20.441Z,101059.05
2017-12-21T11:34:46.760Z,101044.67
2017-12-21T11:37:13.035Z,101042.09
2017-12-21T11:39:40.001Z,101052.25
2017-12-21T11:42:06.269Z,101058.39
2017-12-21T11:44:32.524Z,101056.53
2017-12-21T11:46:58.809Z,101048.82
2017-12-21T11:49:25.065Z,101053.28
2017-12-21T11:51:51.365Z,101047.09
2017-12-21T11:54:17.627Z,101055.02
2017-12-21T11:56:43.867Z,101052.70
2017-12-21T11:59:11.139Z,101060.84
2017-12-21T12:01:38.136Z,101056.25
2017-12-21T12:04:04.434Z,101051.72
2017-12-21T12:06:30.920Z,101052.59
2017-12-21T12:08:57.204Z,101039.61
2017-12-21T12:11:23.506Z,101044.20
2017-12-21T12:13:50.560Z,101040.55
2017-12-21T12:16:17.654Z,101047.50
2017-12-21T12:18:43.962Z,101039.70
2017-12-21T12:21:10.246Z,101040.72
2017-12-21T12:23:36.552Z,101028.40
2017-12-21T12:26:02.838Z,101031.11
2017-12-21T12:28:29.117Z,101034.60
2017-12-21T12:30:55.377Z,101038.14
2017-12-21T12:33:21.737Z,101029.30
2017-12-21T12:35:48.765Z,101034.78
2017-12-21T12:38:15.025Z,101024.27
2017-12-21T12:40:41.333Z,101029.84
2017-12-21T12:43:08.354Z,101038.77
2017-12-21T12:45:34.650Z,101035.08
2017-12-21T12:48:00.990Z,101031.05
2017-12-21T12:50:27.351Z,101032.76
2017-12-21T12:52:53.651Z,101038.19
2017-12-21T12:55:19.911Z,101038.78
2017-12-21T12:57:46.244Z,101045.34
2017-12-21T13:00:12.537Z,101047.65
2017-12-21T13:02:38.791Z,101044.64
2017-12-21T13:05:05.068Z,101048.83
2017-12-21T13:07:31.357Z,101058.88
2017-12-21T13:09:58.650Z,101060.22
2017-12-21T13:12:24.940Z,101056.17
2017-12-21T13:14:51.266Z,101054.58
2017-12-21T13:17:17.531Z,101063.97
2017-12-21T13:19:44.557Z,101061.42
2017-12-21T13:22:10.817Z,101063.03
2017-12-21T13:24:37.812Z,101068.13
2017-12-21T13:27:04.119Z,101079.80
2017-12-21T13:29:30.361Z,101074.85
2017-12-21T13:31:56.640Z,101077.73
2017-12-21T13:34:23.666Z,101073.28
2017-12-21T13:36:50.705Z,101074.00
2017-12-21T13:39:17.045Z,101067.10
2017-12-21T13:41:43.361Z,101078.92
2017-12-21T13:44:09.601Z,101076.15
2017-12-21T13:46:35.933Z,101080.50
2017-12-21T13:49:02.166Z,101089.20
2017-12-21T13:51:28.455Z,101087.56
2017-12-21T13:53:54.755Z,101092.10
2017-12-21T13:56:21.784Z,101092.50
2017-12-21T13:58:48.096Z,101078.47
2017-12-21T14:01:14.431Z,101085.41
2017-12-21T14:03:40.795Z,101090.00
2017-12-21T14:06:07.811Z,101094.81
2017-12-21T14:08:34.126Z,101088.87
2017-12-21T14:11:00.384Z,101105.00
2017-12-21T14:13:26.736Z,101112.52
2017-12-21T14:15:53.734Z,101104.39
2017-12-21T14:18:20.074Z,101110.63
2017-12-21T14:20:46.405Z,101110.66
2017-12-21T14:23:12.742Z,101115.20
2017-12-21T14:25:38.992Z,101112.32
2017-12-21T14:28:06.027Z,101115.47
2017-12-21T14:30:32.309Z,101111.87
2017-12-21T14:32:58.594Z,101105.03
2017-12-21T14:35:25.621Z,101111.82
2017-12-21T14:37:51.850Z,101111.66
2017-12-21T14:40:18.107Z,101116.50
2017-12-21T14:42:45.169Z,101132.91
2017-12-21T14:45:11.437Z,101130.62
2017-12-21T14:47:37.679Z,101132.48
2017-12-21T14:50:03.957Z,101132.52
2017-12-21T14:52:30.236Z,101119.09
2017-12-21T14:54:56.494Z,101115.95
2017-12-21T14:57:22.757Z,101125.92
2017-12-21T14:59:49.033Z,101136.02
2017-12-21T15:02:15.279Z,101139.16
2017-12-21T15:04:41.557Z,101139.25
2017-12-21T15:07:07.820Z,101132.39
2017-12-21T15:09:34.188Z,101136.80
2017-12-21T15:12:01.215Z,101129.55
2017-12-21T15:14:27.490Z,101130.75
2017-12-21T15:16:53.793Z,101129.24
2017-12-21T15:19:20.820Z,101138.73
2017-12-21T15:21:47.114Z,101138.03
2017-12-21T15:24:13.434Z,101138.56
2017-12-21T15:26:39.776Z,101136.70
2017-12-21T15:29:06.084Z,101150.25
2017-12-21T15:31:32.414Z,101139.97
2017-12-21T15:33:59.410Z,101138.60
2017-12-21T15:36:25.714Z,101139.88
2017-12-21T15:38:51.984Z,101136.25
2017-12-21T15:41:19.025Z,101160.56
2017-12-21T15:43:45.303Z,101160.49
2017-12-21T15:46:12.329Z,101169.44
2017-12-21T15:48:39.329Z,101173.79
2017-12-21T15:51:05.641Z,101184.73
2017-12-21T15:53:31.880Z,101191.68
2017-12-21T15:55:58.173Z,101206.53
2017-12-21T15:58:25.159Z,101213.47
2017-12-21T16:00:51.480Z,101219.25
2017-12-21T16:03:17.785Z,101224.52
2017-12-21T16:05:44.988Z,101223.37
2017-12-21T16:08:11.299Z,101224.56
2017-12-21T16:10:37.574Z,101228.97
2017-12-21T16:13:03.936Z,101227.00
2017-12-21T16:15:31.008Z,101218.29
2017-12-21T16:17:57.337Z,101217.11
2017-12-21T16:20:23.600Z,101208.86
2017-12-21T16:22:50.018Z,101195.18
2017-12-21T16:25:16.263Z,101192.13
2017-12-21T16:27:42.519Z,101188.08
2017-12-21T16:30:09.546Z,101196.48
2017-12-21T16:32:36.533Z,101194.78
2017-12-21T16:35:02.873Z,101191.06
2017-12-21T16:37:29.201Z,101188.19
2017-12-21T16:39:56.257Z,101189.43
2017-12-21T16:42:22.545Z,101194.98
2017-12-21T16:44:48.885Z,101196.30
2017-12-21T16:47:15.212Z,101188.48
2017-12-21T16:49:42.993Z,101178.73
2017-12-21T16:52:10.046Z,101184.72
2017-12-21T16:54:37.098Z,101190.52
2017-12-21T16:57:05.530Z,101180.73
2017-12-21T16:59:31.836Z,101200.02
2017-12-21T17:01:58.314Z,101208.23
2017-12-21T17:04:24.601Z,101229.28
2017-12-21T17:06:50.920Z,101229.77
2017-12-21T17:09:17.328Z,101229.80
2017-12-21T17:11:44.368Z,101221.89
2017-12-21T17:14:18.441Z,101213.23
2017-12-21T17:16:44.826Z,101203.48
2017-12-21T17:19:11.870Z,101213.43
2017-12-21T17:21:38.989Z,101215.78
2017-12-21T17:24:05.285Z,101230.70
2017-12-21T17:26:31.544Z,101231.76
2017-12-21T17:28:57.990Z,101247.91
2017-12-21T17:31:24.268Z,101249.09
2017-12-21T17:33:51.219Z,101255.56
2017-12-21T17:36:17.580Z,101262.25
2017-12-21T17:38:43.849Z,101259.27
2017-12-21T17:41:10.959Z,101268.83
2017-12-21T17:43:37.259Z,101270.17
2017-12-21T17:46:03.581Z,101277.12
2017-12-21T17:48:29.827Z,101279.45
2017-12-21T17:50:56.131Z,101288.98
2017-12-21T17:53:22.420Z,101289.27
2017-12-21T17:55:49.502Z,101288.32
2017-12-21T17:58:16.541Z,101282.40
2017-12-21T18:03:12.777Z,101282.52
2017-12-21T18:05:39.163Z,101288.88
2017-12-21T18:08:05.779Z,101297.08
2017-12-21T18:10:32.110Z,101303.12
2017-12-21T18:12:58.352Z,101296.61
2017-12-21T18:15:24.721Z,101289.27
2017-12-21T18:17:51.000Z,101282.86
2017-12-21T18:20:17.327Z,101283.22
2017-12-21T18:22:43.696Z,101303.98
2017-12-21T18:25:10.040Z,101297.42
2017-12-21T18:27:36.344Z,101315.11
2017-12-21T18:30:02.608Z,101326.01
2017-12-21T18:32:28.908Z,101314.84
2017-12-21T18:34:55.184Z,101315.67
2017-12-21T18:37:22.252Z,101321.44
2017-12-21T18:39:49.283Z,101319.71
2017-12-21T18:42:16.124Z,101308.91
2017-12-21T18:44:43.326Z,101307.16
2017-12-21T18:47:09.620Z,101308.05
2017-12-21T18:49:36.679Z,101316.30
2017-12-21T18:52:03.923Z,101333.70
2017-12-21T18:54:31.066Z,101337.11
2017-12-21T18:56:58.107Z,101323.70
2017-12-21T18:59:24.476Z,101330.83
2017-12-21T19:01:50.820Z,101338.04
2017-12-21T19:04:17.132Z,101343.30
2017-12-21T19:06:43.427Z,101328.81
2017-12-21T19:09:10.493Z,101338.16
2017-12-21T19:11:37.523Z,101337.53
2017-12-21T19:14:03.887Z,101343.78
2017-12-21T19:16:30.303Z,101347.01
2017-12-21T19:18:57.377Z,101354.41
2017-12-21T19:21:23.707Z,101357.28
2017-12-21T19:23:49.985Z,101348.47
2017-12-21T19:26:16.377Z,101356.65
2017-12-21T19:28:43.120Z,101356.55
2017-12-21T19:31:09.514Z,101358.53
2017-12-21T19:33:36.935Z,101359.84
2017-12-21T19:36:03.242Z,101360.11
2017-12-21T19:38:29.616Z,101362.42
2017-12-21T19:40:55.985Z,101364.18
2017-12-21T19:43:23.096Z,101364.96
2017-12-21T19:45:49.430Z,101350.75
2017-12-21T19:48:15.772Z,101345.05
2017-12-21T19:50:42.134Z,101349.45
2017-12-21T19:53:08.581Z,101341.64
2017-12-21T19:55:34.876Z,101333.31
2017-12-21T19:58:01.925Z,101327.34
2017-12-21T20:00:29.015Z,101334.70
2017-12-21T20:02:55.309Z,101345.16
2017-12-21T20:05:22.403Z,101343.55
2017-12-21T20:07:48.721Z,101349.83
2017-12-21T20:10:15.305Z,101354.31
2017-12-21T20:12:41.739Z,101358.56
2017-12-21T20:15:08.226Z,101372.63
2017-12-21T20:17:34.596Z,101369.19
2017-12-21T20:20:01.093Z,101366.09
2017-12-21T20:22:27.505Z,101372.65
2017-12-21T20:24:54.015Z,101358.59
2017-12-21T20:27:20.402Z,101377.16
2017-12-21T20:29:46.852Z,101370.66
2017-12-21T20:32:13.211Z,101378.75
2017-12-21T20:34:39.570Z,101364.77
2017-12-21T20:37:07.558Z,101359.51
2017-12-21T20:39:34.111Z,101354.00
2017-12-21T20:42:00.546Z,101348.09
2017-12-21T20:44:27.012Z,101353.14
2017-12-21T20:46:53.681Z,101349.59
2017-12-21T20:49:19.989Z,101358.28
2017-12-21T20:51:46.348Z,101359.33
2017-12-21T20:54:12.703Z,101356.73
2017-12-21T20:56:38.965Z,101361.35
2017-12-21T20:59:05.451Z,101367.34
2017-12-21T21:01:31.725Z,101361.45
2017-12-21T21:03:58.067Z,101363.34
2017-12-21T21:06:24.388Z,101362.88
2017-12-21T21:08:50.718Z,101358.42
2017-12-21T21:11:17.116Z,101354.73
2017-12-21T21:13:43.560Z,101354.86
2017-12-21T21:16:09.881Z,101352.23
2017-12-21T21:18:36.214Z,101353.51
2017-12-21T21:21:02.753Z,101363.56
2017-12-21T21:23:29.109Z,101364.58
2017-12-21T21:25:56.713Z,101356.40
2017-12-21T21:28:23.072Z,101361.41
2017-12-21T21:30:49.390Z,101348.34
2017-12-21T21:33:15.708Z,101349.63
2017-12-21T21:35:42.010Z,101347.76
2017-12-21T21:38:08.411Z,101356.06
2017-12-21T21:40:34.692Z,101352.81
2017-12-21T21:43:00.956Z,101354.30
2017-12-21T21:45:27.245Z,101349.09
2017-12-21T21:47:53.508Z,101350.09
2017-12-21T21:50:19.800Z,101346.73
2017-12-21T21:52:46.122Z,101348.97
2017-12-21T21:55:12.503Z,101342.05
2017-12-21T21:57:38.796Z,101353.91
2017-12-21T22:00:05.091Z,101357.49
2017-12-21T22:02:31.352Z,101350.48
2017-12-21T22:04:59.090Z,101356.75
2017-12-21T22:07:25.393Z,101358.36
2017-12-21T22:09:51.661Z,101347.95
2017-12-21T22:12:18.043Z,101345.11
2017-12-21T22:14:45.135Z,101339.20
2017-12-21T22:17:11.479Z,101347.30
2017-12-21T22:19:37.774Z,101354.20
2017-12-21T22:22:04.045Z,101354.50
2017-12-21T22:24:30.371Z,101363.67
2017-12-21T22:26:56.696Z,101367.65
2017-12-21T22:29:22.969Z,101373.03
2017-12-21T22:31:50.014Z,101371.74
2017-12-21T22:34:17.002Z,101373.80
2017-12-21T22:36:43.292Z,101372.17
2017-12-21T22:39:09.580Z,101376.73
2017-12-21T22:41:35.828Z,101368.84
2017-12-21T22:44:02.128Z,101373.13
2017-12-21T22:46:28.400Z,101375.29
2017-12-21T22:48:55.421Z,101375.34
2017-12-21T22:51:21.656Z,101358.80
2017-12-21T22:53:47.934Z,101368.99
2017-12-21T22:56:14.404Z,101368.25
2017-12-21T22:58:40.692Z,101369.53
2017-12-21T23:01:07.733Z,101374.46
2017-12-21T23:03:34.811Z,101374.12
2017-12-21T23:06:01.049Z,101372.31
2017-12-21T23:08:27.337Z,101375.70
2017-12-21T23:10:54.344Z,101384.16
2017-12-21T23:13:20.651Z,101382.55
2017-12-21T23:15:46.947Z,101378.41
2017-12-21T23:18:13.197Z,101390.60
2017-12-21T23:20:39.463Z,101396.59
2017-12-21T23:23:05.715Z,101406.80
2017-12-21T23:25:32.770Z,101397.10
2017-12-21T23:28:00.019Z,101404.59
2017-12-21T23:30:26.310Z,101398.66
2017-12-21T23:32:52.545Z,101403.02
2017-12-21T23:35:18.856Z,101396.59
2017-12-21T23:37:45.121Z,101401.83
2017-12-21T23:40:11.418Z,101399.20
2017-12-21T23:42:37.692Z,101408.88
2017-12-21T23:45:03.929Z,101409.00
2017-12-21T23:47:30.188Z,101405.97
2017-12-21T23:49:57.216Z,101403.70
2017-12-21T23:52:23.482Z,101392.80
2017-12-21T23:54:49.768Z,101407.48
2017-12-21T23:57:16.766Z,101404.92
2017-12-21T23:59:43.046Z,101411.14
